| time (UTC) | temp C | wind direction | speed KPH | gust KPH | rain 1hr cm | rain 24hr cm | rain mn cm | humidity % | barometer mb |
| 20260507031020 | 11 | 248 | 3.2 | 12.9 | 0.03 | 0.41 | 0.41 | 77 | 1004.8 |
| 20260507030020 | 12 | 248 | 3.2 | 12.9 | 0.03 | 0.41 | 0.41 | 77 | 1004.6 |
| 20260507025019 | 12 | 248 | 3.2 | 12.9 | 0.03 | 0.41 | 0.41 | 77 | 1004.4 |
| 20260507024020 | 12 | 248 | 3.2 | 11.3 | 0.03 | 0.41 | 0.41 | 77 | 1004.3 |
| 20260507023020 | 12 | 248 | 3.2 | 11.3 | 0.03 | 0.41 | 0.41 | 77 | 1004.5 |
| 20260507022020 | 13 | 248 | 3.2 | 9.7 | 0.03 | 0.41 | 0.41 | 77 | 1004.5 |
| 20260507021019 | 13 | 270 | 3.2 | 11.3 | 0.00 | 0.38 | 0.38 | 77 | 1004.5 |
| 20260507020019 | 13 | 248 | 1.6 | 6.4 | 0.00 | 0.38 | 0.38 | 76 | 1004.6 |
| 20260507015019 | 14 | 248 | 3.2 | 11.3 | 0.00 | 0.38 | 0.38 | 79 | 1004.5 |
| 20260507014019 | 15 | 203 | 3.2 | 6.4 | 0.00 | 0.38 | 0.38 | 83 | 1004.4 |
| 20260507013020 | 15 | 203 | 4.8 | 8.0 | 0.00 | 0.38 | 0.38 | 83 | 1004.2 |
| 20260507012020 | 15 | 203 | 6.4 | 11.3 | 0.00 | 0.38 | 0.38 | 83 | 1004.3 |
| 20260507011019 | 15 | 180 | 6.4 | 11.3 | 0.00 | 0.38 | 0.38 | 83 | 1004.2 |
| 20260507010039 | 15 | 180 | 8.0 | 17.7 | 0.00 | 0.38 | 0.38 | 83 | 1004.1 |
| 20260507005019 | 15 | 180 | 8.0 | 14.5 | 0.00 | 0.38 | 0.38 | 83 | 1004.2 |
| 20260507004019 | 15 | 180 | 9.7 | 19.3 | 0.00 | 0.38 | 0.38 | 83 | 1004.2 |
| 20260507003020 | 15 | 180 | 11.3 | 17.7 | 0.00 | 0.38 | 0.38 | 83 | 1004.0 |
| 20260507002020 | 14 | 180 | 12.9 | 19.3 | 0.00 | 0.38 | 0.38 | 83 | 1003.9 |
| 20260507001019 | 14 | 180 | 12.9 | 20.9 | 0.00 | 0.38 | 0.38 | 83 | 1003.8 |
| 20260507000019 | 14 | 180 | 9.7 | 16.1 | 0.00 | 0.38 | 0.38 | 83 | 1003.9 |
| 20260506235019 | 15 | 180 | 11.3 | 17.7 | 0.00 | 0.38 | 0.38 | 83 | 1004.0 |
| 20260506234019 | 15 | 180 | 11.3 | 19.3 | 0.00 | 0.38 | 0.38 | 83 | 1004.0 |
| 20260506233019 | 15 | 180 | 12.9 | 20.9 | 0.00 | 0.38 | 0.38 | 82 | 1003.9 |
| 20260506232019 | 15 | 180 | 12.9 | 17.7 | 0.00 | 0.38 | 0.38 | 83 | 1003.9 |
| 20260506231019 | 15 | 180 | 12.9 | 19.3 | 0.00 | 0.38 | 0.38 | 82 | 1004.0 |
| 20260506230019 | 15 | 180 | 11.3 | 24.1 | 0.00 | 0.38 | 0.38 | 82 | 1004.0 |
| 20260506225059 | 15 | 180 | 9.7 | 17.7 | 0.00 | 0.38 | 0.38 | 83 | 1004.1 |
| 20260506224019 | 15 | 180 | 11.3 | 19.3 | 0.00 | 0.38 | 0.38 | 83 | 1003.9 |
| 20260506223019 | 15 | 180 | 12.9 | 17.7 | 0.03 | 0.38 | 0.38 | 83 | 1004.1 |
| 20260506222019 | 15 | 180 | 11.3 | 19.3 | 0.03 | 0.38 | 0.38 | 83 | 1004.1 |
| 20260506221019 | 15 | 180 | 11.3 | 17.7 | 0.03 | 0.38 | 0.38 | 83 | 1004.2 |
| 20260506220039 | 15 | 180 | 14.5 | 22.5 | 0.03 | 0.38 | 0.38 | 83 | 1004.3 |
| 20260506215019 | 15 | 180 | 12.9 | 20.9 | 0.03 | 0.38 | 0.38 | 83 | 1004.4 |
| 20260506214028 | 15 | 180 | 12.9 | 19.3 | 0.03 | 0.38 | 0.38 | 83 | 1004.5 |
| 20260506213119 | 15 | 180 | 12.9 | 20.9 | 0.03 | 0.36 | 0.36 | 83 | 1004.6 |
| 20260506212019 | 15 | 158 | 11.3 | 19.3 | 0.05 | 0.36 | 0.36 | 83 | 1004.6 |
| 20260506211019 | 15 | 180 | 11.3 | 19.3 | 0.08 | 0.36 | 0.36 | 83 | 1004.7 |
| 20260506210039 | 15 | 180 | 11.3 | 19.3 | 0.08 | 0.36 | 0.36 | 83 | 1004.8 |
| 20260506205019 | 15 | 180 | 11.3 | 19.3 | 0.08 | 0.36 | 0.36 | 82 | 1005.0 |
| 20260506204019 | 15 | 180 | 9.7 | 19.3 | 0.10 | 0.36 | 0.36 | 81 | 1005.1 |
| 20260506203039 | 15 | 158 | 9.7 | 17.7 | 0.08 | 0.33 | 0.33 | 80 | 1004.9 |
| 20260506202059 | 15 | 158 | 9.7 | 19.3 | 0.05 | 0.30 | 0.30 | 79 | 1004.9 |
| 20260506201019 | 15 | 180 | 4.8 | 9.7 | 0.03 | 0.28 | 0.28 | 76 | 1005.0 |
| 20260506200019 | 15 | 180 | 4.8 | 8.0 | 0.05 | 0.28 | 0.28 | 75 | 1005.0 |
| 20260506195039 | 15 | 180 | 4.8 | 8.0 | 0.08 | 0.28 | 0.28 | 74 | 1005.1 |
| 20260506194059 | 15 | 180 | 6.4 | 9.7 | 0.08 | 0.25 | 0.25 | 74 | 1005.2 |
| 20260506193019 | 15 | 180 | 8.0 | 12.9 | 0.13 | 0.25 | 0.25 | 74 | 1005.4 |
| 20260506192019 | 15 | 180 | 9.7 | 16.1 | 0.15 | 0.25 | 0.25 | 74 | 1005.6 |
| 20260506191019 | 16 | 180 | 6.4 | 12.9 | 0.18 | 0.25 | 0.25 | 74 | 1005.8 |
| 20260506190019 | 16 | 180 | 4.8 | 11.3 | 0.18 | 0.23 | 0.23 | 73 | 1005.9 |
| 20260506185019 | 16 | 180 | 4.8 | 9.7 | 0.18 | 0.20 | 0.20 | 72 | 1005.8 |
| 20260506184019 | 16 | 203 | 4.8 | 9.7 | 0.15 | 0.18 | 0.18 | 70 | 1006.0 |
| 20260506183019 | 16 | 203 | 4.8 | 9.7 | 0.10 | 0.13 | 0.13 | 68 | 1006.1 |
| 20260506182019 | 16 | 203 | 4.8 | 9.7 | 0.08 | 0.10 | 0.10 | 67 | 1006.2 |
| 20260506181018 | 17 | 248 | 1.6 | 8.0 | 0.05 | 0.08 | 0.08 | 65 | 1006.3 |
| 20260506180019 | 18 | 225 | 4.8 | 11.3 | 0.03 | 0.05 | 0.05 | 62 | 1006.3 |
| 20260506175018 | 18 | 203 | 6.4 | 14.5 | 0.00 | 0.03 | 0.03 | 58 | 1006.0 |
| 20260506174019 | 19 | 203 | 9.7 | 22.5 | 0.00 | 0.03 | 0.03 | 56 | 1005.8 |
| 20260506173019 | 19 | 180 | 16.1 | 25.7 | 0.00 | 0.03 | 0.03 | 55 | 1005.8 |
| 20260506172039 | 19 | 180 | 16.1 | 29.0 | 0.00 | 0.03 | 0.03 | 52 | 1005.8 |
| 20260506171059 | 20 | 180 | 12.9 | 19.3 | 0.00 | 0.03 | 0.03 | 53 | 1005.8 |
| 20260506170039 | 19 | 180 | 11.3 | 20.9 | 0.00 | 0.03 | 0.03 | 54 | 1006.0 |
| 20260506165021 | 19 | 180 | 9.7 | 16.1 | 0.00 | 0.03 | 0.03 | 55 | 1006.2 |
| 20260506164019 | 19 | 180 | 8.0 | 19.3 | 0.03 | 0.03 | 0.03 | 55 | 1006.3 |
| 20260506163018 | 19 | 180 | 6.4 | 14.5 | 0.03 | 0.03 | 0.03 | 55 | 1006.7 |
| 20260506162019 | 18 | 180 | 6.4 | 9.7 | 0.03 | 0.03 | 0.03 | 57 | 1007.0 |
| 20260506161019 | 18 | 180 | 6.4 | 14.5 | 0.03 | 0.03 | 0.03 | 56 | 1007.3 |
| 20260506160019 | 18 | 180 | 9.7 | 17.7 | 0.03 | 0.03 | 0.03 | 57 | 1007.6 |
| 20260506155018 | 18 | 180 | 9.7 | 19.3 | 0.03 | 0.03 | 0.03 | 58 | 1007.6 |
| 20260506154018 | 18 | 180 | 9.7 | 17.7 | 0.00 | 0.00 | 0.00 | 58 | 1007.9 |
| 20260506153019 | 18 | 158 | 9.7 | 17.7 | 0.00 | 0.00 | 0.00 | 58 | 1007.9 |
| 20260506152019 | 18 | 203 | 8.0 | 20.9 | 0.00 | 0.00 | 0.00 | 57 | 1007.7 |
| 20260506151019 | 18 | 203 | 9.7 | 19.3 | 0.00 | 0.00 | 0.00 | 57 | 1007.7 |
| 20260506150018 | 18 | 180 | 6.4 | 14.5 | 0.00 | 0.00 | 0.00 | 58 | 1007.9 |
| 20260506145018 | 18 | 180 | 8.0 | 14.5 | 0.00 | 0.00 | 0.00 | 59 | 1007.7 |
| 20260506144018 | 17 | 180 | 8.0 | 12.9 | 0.00 | 0.00 | 0.00 | 59 | 1007.6 |
| 20260506143018 | 17 | 180 | 8.0 | 12.9 | 0.00 | 0.00 | 0.00 | 60 | 1007.7 |
| 20260506142018 | 17 | 180 | 6.4 | 12.9 | 0.00 | 0.00 | 0.00 | 60 | 1007.6 |
| 20260506141018 | 17 | 180 | 6.4 | 12.9 | 0.00 | 0.00 | 0.00 | 60 | 1007.6 |
| 20260506140018 | 17 | 180 | 4.8 | 8.0 | 0.00 | 0.00 | 0.00 | 61 | 1007.7 |
| 20260506135038 | 17 | 180 | 6.4 | 11.3 | 0.00 | 0.00 | 0.00 | 61 | 1007.8 |
| 20260506134019 | 16 | 180 | 6.4 | 12.9 | 0.00 | 0.00 | 0.00 | 61 | 1008.0 |
| 20260506133018 | 16 | 180 | 4.8 | 8.0 | 0.00 | 0.00 | 0.00 | 62 | 1008.2 |
| 20260506132018 | 16 | 180 | 4.8 | 9.7 | 0.00 | 0.00 | 0.00 | 62 | 1008.0 |
| 20260506131039 | 16 | 180 | 8.0 | 12.9 | 0.00 | 0.00 | 0.00 | 62 | 1008.2 |
| 20260506130019 | 16 | 180 | 9.7 | 14.5 | 0.00 | 0.00 | 0.00 | 62 | 1008.0 |
| 20260506125019 | 16 | 180 | 8.0 | 12.9 | 0.00 | 0.00 | 0.00 | 62 | 1008.0 |
| 20260506124018 | 16 | 180 | 6.4 | 12.9 | 0.00 | 0.00 | 0.00 | 62 | 1008.1 |
| 20260506123018 | 16 | 180 | 6.4 | 11.3 | 0.00 | 0.00 | 0.00 | 62 | 1008.2 |
| 20260506122020 | 16 | 180 | 4.8 | 9.7 | 0.00 | 0.00 | 0.00 | 62 | 1008.1 |
| 20260506121018 | 15 | 180 | 6.4 | 11.3 | 0.00 | 0.00 | 0.00 | 62 | 1008.1 |
| 20260506120020 | 15 | 158 | 4.8 | 9.7 | 0.00 | 0.00 | 0.00 | 63 | 1008.2 |
| 20260506115018 | 15 | 180 | 1.6 | 6.4 | 0.00 | 0.00 | 0.00 | 63 | 1008.4 |
| 20260506114019 | 15 | 180 | 1.6 | 3.2 | 0.00 | 0.00 | 0.00 | 63 | 1008.5 |
| 20260506113018 | 15 | 180 | 3.2 | 8.0 | 0.00 | 0.00 | 0.00 | 63 | 1008.3 |
| 20260506112018 | 15 | 180 | 4.8 | 9.7 | 0.00 | 0.00 | 0.00 | 63 | 1008.8 |
| 20260506111020 | 15 | 180 | 6.4 | 9.7 | 0.00 | 0.00 | 0.00 | 63 | 1009.1 |
| 20260506110018 | 15 | 180 | 8.0 | 12.9 | 0.00 | 0.00 | 0.00 | 63 | 1009.0 |
| 20260506105018 | 15 | 180 | 6.4 | 14.5 | 0.00 | 0.00 | 0.00 | 62 | 1009.1 |
| 20260506104018 | 14 | 180 | 6.4 | 11.3 | 0.00 | 0.00 | 0.00 | 63 | 1008.8 |
| 20260506103022 | 15 | 180 | 8.0 | 12.9 | 0.00 | 0.00 | 0.00 | 62 | 1008.8 |
| 20260506102020 | 14 | 180 | 8.0 | 12.9 | 0.00 | 0.00 | 0.00 | 63 | 1008.9 |
| 20260506101020 | 14 | 158 | 11.3 | 14.5 | 0.00 | 0.00 | 0.00 | 63 | 1008.6 |
| 20260506100038 | 13 | 180 | 4.8 | 9.7 | 0.00 | 0.00 | 0.00 | 64 | 1008.7 |
| 20260506095020 | 13 | 180 | 4.8 | 8.0 | 0.00 | 0.00 | 0.00 | 62 | 1008.8 |
| 20260506094020 | 14 | 180 | 4.8 | 8.0 | 0.00 | 0.00 | 0.00 | 61 | 1008.6 |
| 20260506093018 | 15 | 180 | 4.8 | 9.7 | 0.00 | 0.00 | 0.00 | 60 | 1008.8 |
| 20260506092020 | 15 | 180 | 4.8 | 9.7 | 0.00 | 0.00 | 0.00 | 61 | 1008.7 |
| 20260506091018 | 15 | 180 | 6.4 | 11.3 | 0.00 | 0.00 | 0.00 | 60 | 1008.4 |
| 20260506090020 | 15 | 180 | 8.0 | 14.5 | 0.00 | 0.00 | 0.00 | 60 | 1008.7 |
| 20260506085020 | 15 | 180 | 8.0 | 14.5 | 0.00 | 0.00 | 0.00 | 61 | 1008.8 |
| 20260506084020 | 15 | 180 | 6.4 | 11.3 | 0.00 | 0.00 | 0.00 | 61 | 1008.6 |
| 20260506083020 | 15 | 180 | 6.4 | 11.3 | 0.00 | 0.00 | 0.00 | 61 | 1008.6 |
| 20260506082038 | 15 | 180 | 6.4 | 9.7 | 0.00 | 0.00 | 0.00 | 60 | 1008.4 |
| 20260506081058 | 15 | 180 | 4.8 | 6.4 | 0.00 | 0.00 | 0.00 | 62 | 1008.5 |
| 20260506073020 | 15 | 0.0 | 3.2 | 0.00 | 0.00 | 0.00 | 62 | 1008.6 | |
| 20260506072020 | 15 | 180 | 3.2 | 8.0 | 0.00 | 0.00 | 0.00 | 61 | 1008.6 |
| 20260506071019 | 15 | 180 | 4.8 | 9.7 | 0.00 | 0.00 | 0.00 | 60 | 1008.4 |
| 20260506062020 | 13 | 158 | 1.6 | 6.4 | 0.00 | 0.00 | 0.00 | 65 | 1007.9 |
| 20260506061020 | 14 | 0.0 | 3.2 | 0.00 | 0.00 | 0.00 | 64 | 1007.9 | |
| 20260506051020 | 16 | 180 | 6.4 | 11.3 | 0.00 | 0.00 | 0.00 | 60 | 1008.2 |
| 20260506045019 | 16 | 180 | 6.4 | 11.3 | 0.00 | 0.00 | 0.00 | 61 | 1008.2 |
| 20260506044020 | 15 | 180 | 3.2 | 6.4 | 0.00 | 0.00 | 0.00 | 63 | 1008.2 |
| 20260506043020 | 16 | 180 | 3.2 | 4.8 | 0.00 | 0.00 | 0.00 | 63 | 1008.2 |
| 20260506042020 | 16 | 180 | 1.6 | 4.8 | 0.00 | 0.00 | 0.00 | 62 | 1008.1 |
| 20260506041020 | 16 | 180 | 3.2 | 6.4 | 0.00 | 0.00 | 0.00 | 62 | 1008.1 |
| 20260506040019 | 16 | 180 | 3.2 | 6.4 | 0.00 | 0.00 | 0.00 | 61 | 1008.2 |
| 20260506035019 | 16 | 180 | 4.8 | 9.7 | 0.00 | 0.00 | 0.00 | 61 | 1008.4 |
| 20260506034020 | 16 | 203 | 4.8 | 9.7 | 0.00 | 0.00 | 0.00 | 61 | 1008.2 |
| 20260506033019 | 16 | 203 | 3.2 | 6.4 | 0.00 | 0.00 | 0.00 | 61 | 1008.3 |
| 20260506032020 | 16 | 180 | 6.4 | 12.9 | 0.00 | 0.00 | 0.00 | 62 | 1007.9 |